createdAt,value
2023-02-18T00:01:50.638Z,47.60
2023-02-18T00:04:19.208Z,51.15
2023-02-18T00:06:48.136Z,53.13
2023-02-18T00:09:18.050Z,57.55
2023-02-18T00:11:46.666Z,57.15
2023-02-18T00:14:17.071Z,56.88
2023-02-18T00:16:46.212Z,56.80
2023-02-18T00:19:16.920Z,55.45
2023-02-18T00:21:46.449Z,53.90
2023-02-18T00:24:16.446Z,56.72
2023-02-18T00:26:53.070Z,57.60
2023-02-18T00:29:22.132Z,58.47
2023-02-18T00:31:51.294Z,56.65
2023-02-18T00:34:19.842Z,55.67
2023-02-18T00:36:48.504Z,51.10
2023-02-18T00:39:17.117Z,52.50
2023-02-18T00:41:45.800Z,52.30
2023-02-18T00:44:15.779Z,48.90
2023-02-18T00:46:44.691Z,49.05
2023-02-18T00:49:13.495Z,44.92
2023-02-18T00:51:42.967Z,46.45
2023-02-18T00:54:11.683Z,45.63
2023-02-18T00:56:40.416Z,42.35
2023-02-18T00:59:09.032Z,44.22
2023-02-18T01:01:39.057Z,43.35
2023-02-18T01:04:08.695Z,43.70
2023-02-18T01:06:37.327Z,42.42
2023-02-18T01:09:06.010Z,41.33
2023-02-18T01:11:34.789Z,40.85
2023-02-18T01:14:03.879Z,42.20
2023-02-18T01:16:32.468Z,42.22
2023-02-18T01:19:02.200Z,46.33
2023-02-18T01:21:30.560Z,48.45
2023-02-18T01:23:59.356Z,49.60
2023-02-18T01:26:27.737Z,51.67
2023-02-18T01:28:56.281Z,53.08
2023-02-18T01:31:24.702Z,53.90
2023-02-18T01:33:53.089Z,59.45
2023-02-18T01:36:22.832Z,62.50
2023-02-18T01:38:51.194Z,59.30
2023-02-18T01:41:19.757Z,62.92
2023-02-18T01:43:48.063Z,64.10
2023-02-18T01:46:19.350Z,61.10
2023-02-18T01:48:52.259Z,59.10
2023-02-18T01:51:24.960Z,61.47
2023-02-18T01:53:57.237Z,62.53
2023-02-18T01:56:30.242Z,61.20
2023-02-18T01:59:02.634Z,56.50
2023-02-18T02:01:33.373Z,58.55
2023-02-18T02:04:02.310Z,55.08
2023-02-18T02:06:32.344Z,56.67
2023-02-18T02:09:04.214Z,53.45
2023-02-18T02:12:12.740Z,54.75
2023-02-18T02:15:01.135Z,52.72
2023-02-18T02:17:41.951Z,53.83
2023-02-18T02:20:47.058Z,55.45
2023-02-18T02:23:50.491Z,47.58
2023-02-18T02:26:46.136Z,52.67
2023-02-18T02:29:41.061Z,49.83
2023-02-18T02:32:34.455Z,54.17
2023-02-18T02:35:08.616Z,52.40
2023-02-18T02:37:45.585Z,56.88
2023-02-18T02:40:26.631Z,59.05
2023-02-18T02:43:07.215Z,60.53
2023-02-18T02:45:49.438Z,58.55
2023-02-18T02:48:26.688Z,54.10
2023-02-18T02:51:04.141Z,52.40
2023-02-18T02:53:36.028Z,51.53
2023-02-18T02:56:04.941Z,48.33
2023-02-18T02:58:33.595Z,49.35
2023-02-18T03:01:23.057Z,49.67
2023-02-18T03:04:24.063Z,46.60
2023-02-18T03:07:27.930Z,42.35
2023-02-18T03:10:13.847Z,41.10
2023-02-18T03:12:50.779Z,41.83
2023-02-18T03:15:28.679Z,39.03
2023-02-18T03:18:03.532Z,42.63
2023-02-18T03:20:36.363Z,44.17
2023-02-18T03:23:10.125Z,40.17
2023-02-18T03:25:40.190Z,38.15
2023-02-18T03:28:12.708Z,37.72
2023-02-18T03:30:44.599Z,37.88
2023-02-18T03:33:18.302Z,36.40
2023-02-18T03:35:49.137Z,35.83
2023-02-18T03:38:22.806Z,33.80
2023-02-18T03:40:51.692Z,35.90
2023-02-18T03:43:20.193Z,37.97
2023-02-18T03:45:48.523Z,39.53
2023-02-18T03:48:16.862Z,37.75
2023-02-18T03:50:45.185Z,37.85
2023-02-18T03:53:13.749Z,38.78
2023-02-18T03:55:43.551Z,40.75
2023-02-18T03:58:11.896Z,43.70
2023-02-18T04:00:40.222Z,40.65
2023-02-18T04:03:08.541Z,38.55
2023-02-18T04:05:37.054Z,40.28
2023-02-18T04:08:05.680Z,40.42
2023-02-18T04:10:33.992Z,41.53
2023-02-18T04:13:03.705Z,42.75
2023-02-18T04:15:32.523Z,41.25
2023-02-18T04:18:01.137Z,43.15
2023-02-18T04:20:29.747Z,39.38
2023-02-18T04:22:58.146Z,38.00
2023-02-18T04:25:26.470Z,41.80
2023-02-18T04:27:54.822Z,42.83
2023-02-18T04:30:24.821Z,42.03
2023-02-18T04:32:53.225Z,39.22
2023-02-18T04:35:21.599Z,42.20
2023-02-18T04:37:50.146Z,44.05
2023-02-18T04:40:18.869Z,39.42
2023-02-18T04:42:47.549Z,39.47
2023-02-18T04:45:15.910Z,39.20
2023-02-18T04:47:45.640Z,38.80
2023-02-18T04:50:13.975Z,34.42
2023-02-18T04:52:42.616Z,35.85
2023-02-18T04:55:11.431Z,37.10
2023-02-18T04:57:39.761Z,39.08
2023-02-18T05:00:11.245Z,34.72
2023-02-18T05:02:39.760Z,38.35
2023-02-18T05:05:09.992Z,36.22
2023-02-18T05:07:38.485Z,37.92
2023-02-18T05:10:09.980Z,39.22
2023-02-18T05:12:38.408Z,33.75
2023-02-18T05:15:08.236Z,32.67
2023-02-18T05:17:36.839Z,31.23
2023-02-18T05:20:09.750Z,29.20
2023-02-18T05:22:40.113Z,29.45
2023-02-18T05:25:08.793Z,28.20
2023-02-18T05:27:37.138Z,25.33
2023-02-18T05:30:06.875Z,23.92
2023-02-18T05:32:35.220Z,19.77
2023-02-18T05:35:03.599Z,22.27
2023-02-18T05:37:31.973Z,17.08
2023-02-18T05:40:01.727Z,18.35
2023-02-18T05:42:30.257Z,15.15
2023-02-18T05:44:58.604Z,16.42
2023-02-18T05:47:26.985Z,15.73
2023-02-18T05:49:56.063Z,15.10
2023-02-18T05:52:24.426Z,14.50
2023-02-18T05:54:52.930Z,12.65
2023-02-18T05:57:22.589Z,12.20
2023-02-18T05:59:51.167Z,13.38
2023-02-18T06:02:19.608Z,13.35
2023-02-18T06:04:48.194Z,14.07
2023-02-18T06:07:16.926Z,12.73
2023-02-18T06:09:45.262Z,14.43
2023-02-18T06:12:13.911Z,12.55
2023-02-18T06:14:44.237Z,12.88
2023-02-18T06:17:14.408Z,10.63
2023-02-18T06:19:42.739Z,11.38
2023-02-18T06:22:11.092Z,12.38
2023-02-18T06:24:39.681Z,11.70
2023-02-18T06:27:08.357Z,12.55
2023-02-18T06:29:37.048Z,11.40
2023-02-18T06:32:06.918Z,12.48
2023-02-18T06:34:35.356Z,11.45
2023-02-18T06:37:04.063Z,10.48
2023-02-18T06:39:32.451Z,9.63
2023-02-18T06:42:00.823Z,10.15
2023-02-18T06:44:29.175Z,9.88
2023-02-18T06:46:59.610Z,8.88
2023-02-18T06:49:50.932Z,8.20
2023-02-18T06:52:19.416Z,8.23
2023-02-18T06:54:47.741Z,8.02
2023-02-18T06:57:16.289Z,6.80
2023-02-18T06:59:45.104Z,7.20
2023-02-18T07:02:14.598Z,8.00
2023-02-18T07:04:45.436Z,8.35
2023-02-18T07:07:15.231Z,6.60
2023-02-18T07:09:43.592Z,7.03
2023-02-18T07:12:13.626Z,7.50
2023-02-18T07:14:42.194Z,9.38
2023-02-18T07:17:12.103Z,8.55
2023-02-18T07:19:40.480Z,9.27
2023-02-18T07:22:11.379Z,9.45
2023-02-18T07:24:41.519Z,9.27
2023-02-18T07:27:10.236Z,9.05
2023-02-18T07:29:38.563Z,9.35
2023-02-18T07:32:06.956Z,9.95
2023-02-18T07:34:35.368Z,8.93
2023-02-18T07:37:04.793Z,8.65
2023-02-18T07:39:33.484Z,7.97
2023-02-18T07:42:03.867Z,8.52
2023-02-18T07:44:32.179Z,9.25
2023-02-18T07:47:00.896Z,10.02
2023-02-18T07:49:29.560Z,9.25
2023-02-18T07:51:57.955Z,9.50
2023-02-18T07:54:26.662Z,7.95
2023-02-18T07:56:55.788Z,8.73
2023-02-18T07:59:25.738Z,8.80
2023-02-18T08:01:54.540Z,8.35
2023-02-18T08:04:23.721Z,8.85
2023-02-18T08:06:53.388Z,12.07
2023-02-18T08:09:21.837Z,13.07
2023-02-18T08:11:50.544Z,14.20
2023-02-18T08:14:19.547Z,15.13
2023-02-18T08:16:49.481Z,14.32
2023-02-18T08:19:18.231Z,12.25
2023-02-18T08:21:47.114Z,9.50
2023-02-18T08:24:15.574Z,8.48
2023-02-18T08:26:59.397Z,8.35
2023-02-18T08:29:30.081Z,7.97
2023-02-18T08:31:59.929Z,8.30
2023-02-18T08:34:28.403Z,7.35
2023-02-18T08:36:56.800Z,6.63
2023-02-18T08:39:25.160Z,5.70
2023-02-18T08:41:53.638Z,4.43
2023-02-18T08:44:22.017Z,4.82
2023-02-18T08:46:50.443Z,5.38
2023-02-18T08:49:20.883Z,6.53
2023-02-18T08:51:49.632Z,7.10
2023-02-18T08:54:18.945Z,8.30
2023-02-18T08:56:47.574Z,8.85
2023-02-18T08:59:15.990Z,7.20
2023-02-18T09:01:44.816Z,7.85
2023-02-18T09:04:16.234Z,7.90
2023-02-18T09:06:46.752Z,8.57
2023-02-18T09:09:15.282Z,9.43
2023-02-18T09:11:44.744Z,8.88
2023-02-18T09:14:14.754Z,9.00
2023-02-18T09:16:43.534Z,9.10
2023-02-18T09:19:12.417Z,9.82
2023-02-18T09:21:41.111Z,10.30
2023-02-18T09:24:11.221Z,11.90
2023-02-18T09:26:40.129Z,11.43
2023-02-18T09:29:11.782Z,12.90
2023-02-18T09:31:40.471Z,10.95
2023-02-18T09:34:09.404Z,10.25
2023-02-18T09:36:40.299Z,9.48
2023-02-18T09:39:08.960Z,9.20
2023-02-18T09:41:43.863Z,9.40
2023-02-18T09:44:17.666Z,10.15
2023-02-18T09:46:51.489Z,10.85
2023-02-18T09:49:24.402Z,12.60
2023-02-18T09:51:54.281Z,13.38
2023-02-18T09:54:23.105Z,14.38
2023-02-18T09:56:54.781Z,12.27
2023-02-18T09:59:25.969Z,14.55
2023-02-18T10:01:57.136Z,15.00
2023-02-18T10:04:30.548Z,13.20
2023-02-18T10:07:00.599Z,15.20
2023-02-18T10:09:34.066Z,14.93
2023-02-18T10:12:15.160Z,13.45
2023-02-18T10:14:45.694Z,11.70
2023-02-18T10:17:17.737Z,12.18
2023-02-18T10:19:49.234Z,10.50
2023-02-18T10:22:19.301Z,11.88
2023-02-18T10:24:51.222Z,11.30
2023-02-18T10:27:25.924Z,12.43
2023-02-18T10:29:55.941Z,10.60
2023-02-18T10:32:27.908Z,12.27
2023-02-18T10:35:04.366Z,14.25
2023-02-18T10:37:56.861Z,10.45
2023-02-18T10:40:34.473Z,12.20
2023-02-18T10:43:15.217Z,10.57
2023-02-18T10:45:53.455Z,10.23
2023-02-18T10:48:49.001Z,10.38
2023-02-18T10:51:21.734Z,10.70
2023-02-18T10:53:53.227Z,10.35
2023-02-18T10:56:40.722Z,11.65
2023-02-18T10:59:19.935Z,11.52
2023-02-18T11:01:56.723Z,11.00
2023-02-18T11:04:29.268Z,12.88
2023-02-18T11:07:05.860Z,15.50
2023-02-18T11:09:44.442Z,15.85
2023-02-18T11:12:17.867Z,17.48
2023-02-18T11:14:51.215Z,17.70
2023-02-18T11:17:23.095Z,17.63
2023-02-18T11:19:57.790Z,20.95
2023-02-18T11:22:30.004Z,19.70
2023-02-18T11:25:00.412Z,22.65
2023-02-18T11:27:38.189Z,22.70
2023-02-18T11:30:20.826Z,22.20
2023-02-18T11:32:51.530Z,23.25
2023-02-18T11:35:22.436Z,22.60
2023-02-18T11:37:51.854Z,21.83
2023-02-18T11:40:28.304Z,25.90
2023-02-18T11:43:05.664Z,23.67
2023-02-18T11:45:36.134Z,27.02
2023-02-18T11:48:09.164Z,26.25
2023-02-18T11:50:37.825Z,23.85
2023-02-18T11:53:29.216Z,24.65
2023-02-18T11:56:00.504Z,23.50
2023-02-18T11:58:41.931Z,24.27
2023-02-18T12:01:18.066Z,25.50
2023-02-18T12:03:53.332Z,25.33
2023-02-18T12:06:27.780Z,26.05
2023-02-18T12:09:01.849Z,23.40
2023-02-18T12:11:37.313Z,25.15
2023-02-18T12:14:13.517Z,24.25
2023-02-18T12:16:51.223Z,23.55
2023-02-18T12:19:36.260Z,24.50
2023-02-18T12:22:14.524Z,24.92
2023-02-18T12:24:58.585Z,24.33
2023-02-18T12:27:35.100Z,22.65
2023-02-18T12:30:54.346Z,21.55
2023-02-18T12:33:35.276Z,23.85
2023-02-18T12:36:14.780Z,23.73
2023-02-18T12:39:04.720Z,23.02
2023-02-18T12:41:58.720Z,23.30
2023-02-18T12:44:35.847Z,22.65
2023-02-18T12:47:31.585Z,23.23
2023-02-18T12:50:25.994Z,22.92
2023-02-18T12:53:12.098Z,23.42
2023-02-18T12:55:57.024Z,24.48
2023-02-18T12:58:38.923Z,23.50
2023-02-18T13:01:29.557Z,23.23
2023-02-18T13:04:17.647Z,23.15
2023-02-18T13:07:16.797Z,24.48
2023-02-18T13:10:01.759Z,25.55
2023-02-18T13:12:36.012Z,26.60
2023-02-18T13:15:12.431Z,24.13
2023-02-18T13:17:44.018Z,24.48
2023-02-18T13:20:21.387Z,29.17
2023-02-18T13:22:54.815Z,27.67
2023-02-18T13:25:23.924Z,29.50
2023-02-18T13:28:02.263Z,31.52
2023-02-18T13:30:39.476Z,31.88
2023-02-18T13:33:16.547Z,30.52
2023-02-18T13:35:53.338Z,35.85
2023-02-18T13:38:54.642Z,34.83
2023-02-18T13:41:23.990Z,32.05
2023-02-18T13:44:00.139Z,36.35
2023-02-18T13:47:04.261Z,35.33
2023-02-18T13:49:42.887Z,35.47
2023-02-18T13:52:21.274Z,33.35
2023-02-18T13:54:52.142Z,31.52
2023-02-18T13:57:23.124Z,32.58
2023-02-18T13:59:58.048Z,33.55
2023-02-18T14:02:33.009Z,32.35
2023-02-18T14:05:20.919Z,34.65
2023-02-18T14:07:52.190Z,34.83
2023-02-18T14:10:35.780Z,35.95
2023-02-18T14:13:27.693Z,31.67
2023-02-18T14:16:02.048Z,31.67
2023-02-18T14:18:51.554Z,32.28
2023-02-18T14:21:40.927Z,35.00
2023-02-18T14:24:12.812Z,34.70
2023-02-18T14:26:48.334Z,34.15
2023-02-18T14:29:23.636Z,32.65
2023-02-18T14:31:57.472Z,34.58
2023-02-18T14:35:03.428Z,33.33
2023-02-18T14:38:08.328Z,36.88
2023-02-18T14:40:52.180Z,31.98
2023-02-18T14:43:46.349Z,36.05
2023-02-18T14:46:26.990Z,33.17
2023-02-18T14:49:18.478Z,31.40
2023-02-18T14:51:49.212Z,34.30
2023-02-18T14:54:21.574Z,31.67
2023-02-18T14:56:56.619Z,32.25
2023-02-18T14:59:29.750Z,33.75
2023-02-18T15:01:58.474Z,34.92
2023-02-18T15:04:27.877Z,33.05
2023-02-18T15:07:02.228Z,32.38
2023-02-18T15:09:31.411Z,32.33
2023-02-18T15:12:02.310Z,32.88
2023-02-18T15:14:35.369Z,35.95
2023-02-18T15:17:06.067Z,33.88
2023-02-18T15:19:40.685Z,31.85
2023-02-18T15:22:16.910Z,32.88
2023-02-18T15:24:45.862Z,32.17
2023-02-18T15:27:17.796Z,33.92
2023-02-18T15:29:51.116Z,34.58
2023-02-18T15:32:22.937Z,34.95
2023-02-18T15:34:53.349Z,32.05
2023-02-18T15:37:21.860Z,31.05
2023-02-18T15:39:50.335Z,29.60
2023-02-18T15:42:27.315Z,23.77
2023-02-18T15:45:03.407Z,23.48
2023-02-18T15:47:33.307Z,28.08
2023-02-18T15:50:03.578Z,27.35
2023-02-18T15:52:34.244Z,26.80
2023-02-18T15:55:06.123Z,26.38
2023-02-18T15:57:37.082Z,23.83
2023-02-18T16:00:16.639Z,24.77
2023-02-18T16:02:54.308Z,23.50
2023-02-18T16:05:27.534Z,21.07
2023-02-18T16:08:02.232Z,22.95
2023-02-18T16:10:44.996Z,21.85
2023-02-18T16:13:16.068Z,19.88
2023-02-18T16:15:48.358Z,19.92
2023-02-18T16:18:26.385Z,20.70
2023-02-18T16:20:56.473Z,21.08
2023-02-18T16:23:32.254Z,20.75
2023-02-18T16:26:12.632Z,20.92
2023-02-18T16:28:43.640Z,19.95
2023-02-18T16:31:13.566Z,22.60
2023-02-18T16:33:42.060Z,21.50
2023-02-18T16:36:15.218Z,21.35
2023-02-18T16:38:44.492Z,23.52
2023-02-18T16:41:14.913Z,23.60
2023-02-18T16:43:44.081Z,22.75
2023-02-18T16:46:18.063Z,23.75
2023-02-18T16:48:56.841Z,23.40
2023-02-18T16:51:30.260Z,24.88
2023-02-18T16:53:58.745Z,25.88
2023-02-18T16:56:30.788Z,26.10
2023-02-18T16:58:59.399Z,28.15
2023-02-18T17:01:32.088Z,29.48
2023-02-18T17:04:02.725Z,27.20
2023-02-18T17:06:31.373Z,27.60
2023-02-18T17:09:00.412Z,29.30
2023-02-18T17:11:32.447Z,28.77
2023-02-18T17:14:04.859Z,29.45
2023-02-18T17:16:34.990Z,30.70
2023-02-18T17:19:03.371Z,31.85
2023-02-18T17:21:32.076Z,34.20
2023-02-18T17:24:00.419Z,30.35
2023-02-18T17:26:30.289Z,28.65
2023-02-18T17:29:00.301Z,27.95
2023-02-18T17:31:31.849Z,27.60
2023-02-18T17:34:05.761Z,28.42
2023-02-18T17:36:34.748Z,28.40
2023-02-18T17:39:07.260Z,30.35
2023-02-18T17:41:35.734Z,28.20
2023-02-18T17:44:05.260Z,28.10
2023-02-18T17:46:33.678Z,27.60
2023-02-18T17:49:03.398Z,29.73
2023-02-18T17:51:31.752Z,28.52
2023-02-18T17:54:00.284Z,29.25
2023-02-18T17:56:28.645Z,29.85
2023-02-18T17:58:57.014Z,30.88
2023-02-18T18:01:25.574Z,32.05
2023-02-18T18:03:54.029Z,32.95
2023-02-18T18:06:23.899Z,32.75
2023-02-18T18:08:52.316Z,31.88
2023-02-18T18:11:22.995Z,31.50
2023-02-18T18:13:52.832Z,31.77
2023-02-18T18:16:21.707Z,30.58
2023-02-18T18:18:50.320Z,31.85
2023-02-18T18:21:23.301Z,31.75
2023-02-18T18:23:53.195Z,29.63
2023-02-18T18:26:21.551Z,32.97
2023-02-18T18:28:49.897Z,31.20
2023-02-18T18:31:19.916Z,29.80
2023-02-18T18:33:51.479Z,31.70
2023-02-18T18:36:20.950Z,32.13
2023-02-18T18:38:49.367Z,31.73
2023-02-18T18:41:20.677Z,33.30
2023-02-18T18:43:49.691Z,33.17
2023-02-18T18:46:18.803Z,33.47
2023-02-18T18:48:47.382Z,35.58
2023-02-18T18:51:16.924Z,37.70
2023-02-18T18:53:45.652Z,38.63
2023-02-18T18:56:14.618Z,38.90
2023-02-18T18:58:45.067Z,37.83
2023-02-18T19:01:17.894Z,38.88
2023-02-18T19:03:47.374Z,37.45
2023-02-18T19:06:17.261Z,36.40
2023-02-18T19:08:47.698Z,36.00
2023-02-18T19:11:17.151Z,35.97
2023-02-18T19:13:46.886Z,37.60
2023-02-18T19:16:19.687Z,41.70
2023-02-18T19:18:48.876Z,41.92
2023-02-18T19:21:17.688Z,40.33
2023-02-18T19:23:46.322Z,45.80
2023-02-18T19:26:16.899Z,44.80
2023-02-18T19:28:46.950Z,49.53
2023-02-18T19:31:16.149Z,50.88
2023-02-18T19:33:46.820Z,51.92
2023-02-18T19:36:16.653Z,52.08
2023-02-18T19:38:46.170Z,52.00
2023-02-18T19:41:17.025Z,54.05
2023-02-18T19:43:47.509Z,52.80
2023-02-18T19:46:18.217Z,51.35
2023-02-18T19:48:49.258Z,52.13
2023-02-18T19:51:17.918Z,51.95
2023-02-18T19:53:47.026Z,54.92
2023-02-18T19:56:15.472Z,51.55
2023-02-18T19:58:44.091Z,48.83
2023-02-18T20:01:14.903Z,49.90
2023-02-18T20:03:44.227Z,49.05
2023-02-18T20:06:17.180Z,50.05
2023-02-18T20:08:46.182Z,47.08
2023-02-18T20:11:14.585Z,47.75
2023-02-18T20:13:43.117Z,47.88
2023-02-18T20:16:11.905Z,48.22
2023-02-18T20:18:41.736Z,49.95
2023-02-18T20:21:12.149Z,51.15
2023-02-18T20:23:40.743Z,50.80
2023-02-18T20:26:09.746Z,47.42
2023-02-18T20:28:38.603Z,50.15
2023-02-18T20:31:08.344Z,51.47
2023-02-18T20:33:37.310Z,54.75
2023-02-18T20:36:08.453Z,50.25
2023-02-18T20:38:38.236Z,49.85
2023-02-18T20:41:07.365Z,47.97
2023-02-18T20:43:36.255Z,50.40
2023-02-18T20:46:07.135Z,47.35
2023-02-18T20:48:36.543Z,45.88
2023-02-18T20:51:07.854Z,47.83
2023-02-18T20:53:38.211Z,47.95
2023-02-18T20:56:08.085Z,43.67
2023-02-18T20:58:36.966Z,46.50
2023-02-18T21:01:07.916Z,44.22
2023-02-18T21:03:37.774Z,44.22
2023-02-18T21:06:10.029Z,45.22
2023-02-18T21:08:40.698Z,46.75
2023-02-18T21:11:11.484Z,43.67
2023-02-18T21:13:40.564Z,42.92
2023-02-18T21:16:10.196Z,43.88
2023-02-18T21:18:38.646Z,44.70
2023-02-18T21:21:10.721Z,45.08
2023-02-18T21:23:40.644Z,44.00
2023-02-18T21:26:11.826Z,44.35
2023-02-18T21:28:41.497Z,43.97
2023-02-18T21:31:17.169Z,43.15
2023-02-18T21:33:46.181Z,42.63
2023-02-18T21:36:16.395Z,45.80
2023-02-18T21:38:45.423Z,46.08
2023-02-18T21:41:13.850Z,41.20
2023-02-18T21:43:45.371Z,41.60
2023-02-18T21:46:16.244Z,41.15
2023-02-18T21:49:05.691Z,42.15
2023-02-18T21:51:55.463Z,42.00
2023-02-18T21:54:25.760Z,42.10
2023-02-18T21:56:55.159Z,41.45
2023-02-18T21:59:26.641Z,40.10
2023-02-18T22:01:55.445Z,39.08
2023-02-18T22:04:25.275Z,38.58
2023-02-18T22:06:55.041Z,36.22
2023-02-18T22:09:23.558Z,37.85
2023-02-18T22:11:51.992Z,37.00
2023-02-18T22:14:20.627Z,38.80
2023-02-18T22:16:49.350Z,36.22
2023-02-18T22:19:17.808Z,35.55
2023-02-18T22:21:46.801Z,36.08
2023-02-18T22:24:18.077Z,35.13
2023-02-18T22:26:48.333Z,34.97
2023-02-18T22:29:19.682Z,33.83
2023-02-18T22:31:49.457Z,34.17
2023-02-18T22:34:18.281Z,30.75
2023-02-18T22:36:46.787Z,33.75
2023-02-18T22:39:17.238Z,39.25
2023-02-18T22:41:45.784Z,37.72
2023-02-18T22:44:16.220Z,43.47
2023-02-18T22:46:44.789Z,41.20
2023-02-18T22:49:13.379Z,42.50
2023-02-18T22:51:44.546Z,44.83
2023-02-18T22:54:16.520Z,40.42
2023-02-18T22:56:46.391Z,38.25
2023-02-18T22:59:17.127Z,43.72
2023-02-18T23:01:49.138Z,41.70
2023-02-18T23:04:19.709Z,41.55
2023-02-18T23:06:49.115Z,41.85
2023-02-18T23:09:20.734Z,38.33
2023-02-18T23:11:52.129Z,39.55
2023-02-18T23:14:21.649Z,33.92
2023-02-18T23:17:53.230Z,37.75
2023-02-18T23:20:41.934Z,37.08
2023-02-18T23:23:10.593Z,36.25
2023-02-18T23:25:40.499Z,34.05
2023-02-18T23:28:09.411Z,36.50
2023-02-18T23:30:38.048Z,33.90
2023-02-18T23:33:06.542Z,34.72
2023-02-18T23:35:35.029Z,30.85
2023-02-18T23:38:06.222Z,35.63
2023-02-18T23:40:35.375Z,33.30
2023-02-18T23:43:05.215Z,38.75
2023-02-18T23:45:33.618Z,39.97
2023-02-18T23:48:02.165Z,39.65
2023-02-18T23:50:30.544Z,42.03
2023-02-18T23:52:59.210Z,44.55
2023-02-18T23:55:27.597Z,55.97
2023-02-18T23:57:56.311Z,44.80
